Tennessee Colony, TX (75861)

2:12 PM CDT on September 01, 2015 (GMT -0500)
Hadley | | Change Station
CLOSE
Current Station
Personal Weather Station
Location: Tennessee Colony, TX
Elevation: 370 ft
Nearby Weather Stations

Elev 370 ft 31.83 °N, 95.85 °W | Updated 6 minutes ago

Mostly Cloudy
Mostly Cloudy
91.6 °F
Feels Like 96 °F
N
4.0
Wind Variable Wind from ESE

Today
High -- | Low -- °F
--% Chance of Precip.
Yesterday
High -- | Low -- °F
Precip. -- in
6:58 AM 7:47 PM
Waning Gibbous, 87% visible
Pressure 30.04 in
Visibility 10.0 miles
Clouds Scattered Clouds 5000 ft
Heat Index 96 °F
Dew Point 68 °F
Humidity 46%
Rainfall 0.00 in
Snow Depth Not available.
UV 8.5 out of 12
Pollen 8.30 out of 12
Air Quality Not available.
Flu Activity Not available.
METAR KPSN 011855Z AUTO 17007KT 10SM SCT050 32/18 A3004 RMK AO2 T03230188
Pressure 30.04 in
Visibility 10.0 miles
Clouds Scattered Clouds 5000 ft
Heat Index 96 °F
Dew Point 68 °F
Humidity 46%
Rainfall 0.00 in
Snow Depth Not available.
UV 8.5 out of 12
Pollen 8.30 out of 12
Air Quality Not available.
Flu Activity Not available.
METAR KPSN 011855Z AUTO 17007KT 10SM SCT050 32/18 A3004 RMK AO2 T03230188
Nowcast | as of 1:14 PM CDT on September 1, 2015

Scattered showers and thunderstorms will affect areas southeast of a Temple to Athens line through 330 PM. Brief heavy rain and cloud to ground lightning will accompany some of these storms as they move north at 15 to 20 mph. Otherwise...expect mostly sunny skies with temperatures warming into the low to mid 90s by 4 PM.

×

10-Day Weather Forecast

×

Almanac

Astronomy

Sep. 01, 2015 Rise Set
Actual Time
Civil Twilight
Nautical Twilight
Astronomical Twilight
Moon
Length of Visible Light
Length of Day
Tomorrow will be .
, % of the Moon is Illuminated

Today's Extremes

State Highs State Lows

Community

WunderPhotos

Upload Photos

1,851,596 photos uploaded!

WunderBlogs® & News

Nearby

Air Quality

  Air Quality AQ Index Pollutant
Not available.

Snow Depth

Station Depth Elevation

Earthquake Activity

City Distance Mag. Time & Date
Minimum magnitude displayed is 2.5.

Coastal Water Temperatures

Place Temperature

Stations

Nearby Weather Stations

Station Location Temp. Windchill Dew Point Humidity Wind Precip. Elev Updated Type